Time;durP1;ratioP1;P1;durP2;ratioP2;P2;SDS_P1;SDS_P2;PMS_P1;PMS_P2;Temp;Humidity;BMP_temperature;BMP_pressure;BME280_temperature;BME280_humidity;BME280_pressure;Samples;Min_cycle;Max_cycle;Signal;HPM_P1;HPM_P2
2022/07/28 00:01:42;;;;;;;1.90;1.40;;;23.40;57.40;;;;;;4936565;29;20440;-72
2022/07/28 00:04:13;;;;;;;1.57;1.47;;;23.40;57.30;;;;;;4936395;29;20407;-72
2022/07/28 00:06:41;;;;;;;1.93;1.40;;;23.30;57.30;;;;;;4951110;29;20432;-72
2022/07/28 00:09:09;;;;;;;1.90;1.40;;;23.40;57.20;;;;;;4935117;29;20945;-72
2022/07/28 00:11:38;;;;;;;3.37;1.27;;;23.30;57.20;;;;;;4936304;29;20466;-72
2022/07/28 00:14:04;;;;;;;1.77;1.20;;;23.30;57.20;;;;;;4936234;29;20479;-72
2022/07/28 00:16:30;;;;;;;2.03;1.30;;;23.30;57.20;;;;;;4935600;29;20446;-72
2022/07/28 00:18:59;;;;;;;2.57;1.10;;;23.30;57.30;;;;;;4951368;29;20443;-72
2022/07/28 00:21:28;;;;;;;2.20;1.30;;;23.30;57.30;;;;;;4922615;29;20464;-72
2022/07/28 00:23:59;;;;;;;1.30;1.20;;;23.30;57.20;;;;;;4931705;29;20436;-72
2022/07/28 00:26:25;;;;;;;2.70;1.37;;;23.30;57.20;;;;;;4932137;29;20429;-72
2022/07/28 00:28:51;;;;;;;3.07;1.30;;;23.30;57.20;;;;;;4931769;29;20424;-72
2022/07/28 00:31:17;;;;;;;1.50;1.40;;;23.20;57.20;;;;;;4917037;29;20445;-72
2022/07/28 00:33:48;;;;;;;2.80;1.30;;;23.20;57.20;;;;;;4916017;29;20480;-72
2022/07/28 00:36:14;;;;;;;1.87;1.20;;;23.20;57.10;;;;;;4931549;29;20519;-72
2022/07/28 00:38:42;;;;;;;1.97;1.30;;;23.20;57.10;;;;;;4935805;29;20475;-72
2022/07/28 00:41:11;;;;;;;1.70;1.60;;;23.20;57.20;;;;;;4935623;29;20455;-72
2022/07/28 00:43:44;;;;;;;1.53;1.40;;;23.20;57.20;;;;;;4936009;28;20447;-72
2022/07/28 00:46:13;;;;;;;2.07;1.10;;;23.20;57.20;;;;;;4931271;29;20448;-72
2022/07/28 00:48:44;;;;;;;2.13;1.30;;;23.20;57.20;;;;;;4915679;29;20405;-72
2022/07/28 00:51:11;;;;;;;2.20;1.03;;;23.20;57.30;;;;;;4931257;29;20504;-72
2022/07/28 00:53:40;;;;;;;1.60;0.97;;;23.10;57.20;;;;;;4946669;29;20491;-72
2022/07/28 00:56:08;;;;;;;2.17;1.10;;;23.10;57.20;;;;;;4934448;29;20440;-72
2022/07/28 00:58:36;;;;;;;1.23;1.00;;;23.10;57.20;;;;;;4950590;29;20416;-72
2022/07/28 01:01:10;;;;;;;1.67;1.10;;;23.10;57.20;;;;;;4935416;29;20449;-72
2022/07/28 01:03:42;;;;;;;2.87;1.17;;;23.10;57.20;;;;;;4902812;29;20451;-71
2022/07/28 01:06:36;;;;;;;1.87;1.40;;;23.10;57.20;;;;;;4950398;29;20542;-71
2022/07/28 01:09:43;;;;;;;2.50;1.20;;;23.10;57.30;;;;;;4903142;29;20431;-71
2022/07/28 01:12:20;;;;;;;3.97;1.20;;;23.00;57.20;;;;;;4950613;29;20830;-71
2022/07/28 01:15:11;;;;;;;1.53;1.00;;;23.00;57.30;;;;;;4938193;29;20439;-72
2022/07/28 01:17:42;;;;;;;1.90;1.10;;;23.00;57.20;;;;;;4950227;29;20444;-72
2022/07/28 01:20:19;;;;;;;2.23;1.40;;;23.00;57.20;;;;;;4950494;29;21044;-72
2022/07/28 01:23:30;;;;;;;1.80;1.20;;;23.00;57.20;;;;;;4935319;29;20439;-72
2022/07/28 01:26:25;;;;;;;1.63;1.40;;;23.00;57.30;;;;;;4950029;29;21037;-72
2022/07/28 01:29:33;;;;;;;1.50;1.40;;;23.00;57.40;;;;;;4921938;29;20451;-71
2022/07/28 01:32:09;;;;;;;1.23;1.13;;;22.90;57.30;;;;;;4939092;29;20446;-71
2022/07/28 01:35:01;;;;;;;2.03;1.50;;;22.90;57.30;;;;;;4937942;29;20980;-71
2022/07/28 01:37:38;;;;;;;2.37;1.30;;;22.90;57.40;;;;;;4921043;29;20933;-71
2022/07/28 01:40:07;;;;;;;2.07;0.93;;;22.90;57.40;;;;;;4922185;29;20506;-71
2022/07/28 01:42:40;;;;;;;2.83;1.30;;;22.90;57.40;;;;;;4938191;29;20802;-72
2022/07/28 01:45:11;;;;;;;2.20;1.13;;;22.90;57.40;;;;;;4933727;29;20468;-72
2022/07/28 01:47:44;;;;;;;1.97;1.20;;;22.90;57.40;;;;;;4932596;29;20841;-72
2022/07/28 01:50:13;;;;;;;1.60;1.20;;;22.80;57.30;;;;;;4938867;29;20450;-72
2022/07/28 01:52:46;;;;;;;2.73;1.20;;;22.80;57.40;;;;;;4907052;29;20771;-72
2022/07/28 01:55:15;;;;;;;1.53;1.30;;;22.80;57.40;;;;;;4937522;29;20443;-72
2022/07/28 01:57:47;;;;;;;3.60;1.20;;;22.80;57.40;;;;;;4934342;29;20451;-72
2022/07/28 02:00:16;;;;;;;1.30;1.17;;;22.80;57.40;;;;;;4919690;29;20448;-72
2022/07/28 02:02:49;;;;;;;2.77;0.97;;;22.80;57.40;;;;;;4918603;29;20404;-72
2022/07/28 02:05:17;;;;;;;2.00;1.20;;;22.80;57.40;;;;;;4934342;29;20531;-72
2022/07/28 02:07:46;;;;;;;1.70;1.23;;;22.80;57.40;;;;;;4919691;29;20926;-72
2022/07/28 02:10:35;;;;;;;1.77;1.50;;;22.80;57.40;;;;;;4919504;29;20463;-72
2022/07/28 02:13:02;;;;;;;1.47;1.10;;;22.70;57.40;;;;;;4919580;29;20953;-71
2022/07/28 02:15:32;;;;;;;1.53;1.07;;;22.70;57.40;;;;;;4948622;29;20488;-71
2022/07/28 02:18:09;;;;;;;1.50;1.20;;;22.70;57.40;;;;;;4937365;29;20844;-71
2022/07/28 02:20:43;;;;;;;1.37;1.00;;;22.70;57.40;;;;;;4936793;29;20622;-71
2022/07/28 02:23:15;;;;;;;1.50;1.10;;;22.70;57.50;;;;;;4953243;29;21004;-71
2022/07/28 02:25:41;;;;;;;2.03;1.10;;;22.70;57.50;;;;;;4938400;29;20458;-72
2022/07/28 02:28:09;;;;;;;2.17;1.20;;;22.70;57.50;;;;;;4937091;29;20436;-72
2022/07/28 02:30:35;;;;;;;1.93;0.93;;;22.70;57.50;;;;;;4953129;29;20514;-72
2022/07/28 02:33:20;;;;;;;1.33;1.03;;;22.60;57.50;;;;;;4937019;29;20405;-72
2022/07/28 02:36:00;;;;;;;2.63;1.53;;;22.70;57.60;;;;;;4937181;29;20560;-72
2022/07/28 02:38:37;;;;;;;1.40;1.10;;;22.60;57.50;;;;;;4953129;29;20451;-72
2022/07/28 02:41:23;;;;;;;2.00;1.10;;;22.60;57.60;;;;;;4921560;29;20590;-72
2022/07/28 02:43:53;;;;;;;1.10;1.00;;;22.60;57.60;;;;;;4937245;29;20475;-72
2022/07/28 02:46:24;;;;;;;1.63;1.10;;;22.60;57.60;;;;;;4937082;29;20467;-72
2022/07/28 02:49:03;;;;;;;1.43;1.10;;;22.60;57.60;;;;;;4953294;29;20806;-72
2022/07/28 02:51:32;;;;;;;2.60;1.57;;;22.50;57.60;;;;;;4938017;29;20444;-72
2022/07/28 02:54:02;;;;;;;1.60;1.23;;;22.50;57.60;;;;;;4938179;29;20418;-73
2022/07/28 02:56:33;;;;;;;1.60;1.50;;;22.50;57.70;;;;;;4937165;29;20522;-73
2022/07/28 02:59:01;;;;;;;1.80;1.00;;;22.50;57.70;;;;;;4937005;29;20896;-73
2022/07/28 03:01:30;;;;;;;1.90;1.20;;;22.50;57.70;;;;;;4937946;29;20436;-73
2022/07/28 03:03:59;;;;;;;2.17;1.20;;;22.50;57.70;;;;;;4938036;29;20444;-73
2022/07/28 03:06:27;;;;;;;1.93;1.17;;;22.50;57.70;;;;;;4936729;29;20539;-73
2022/07/28 03:08:56;;;;;;;1.90;1.10;;;22.40;57.70;;;;;;4936640;29;20451;-72
2022/07/28 03:11:22;;;;;;;1.30;1.20;;;22.40;57.70;;;;;;4937808;29;20523;-72
2022/07/28 03:13:54;;;;;;;2.50;1.10;;;22.40;57.80;;;;;;4937816;29;20915;-72
2022/07/28 03:16:22;;;;;;;1.23;1.10;;;22.40;57.70;;;;;;4952781;29;20418;-72
2022/07/28 03:18:53;;;;;;;2.03;1.37;;;22.40;57.80;;;;;;4952139;29;20443;-72
2022/07/28 03:21:19;;;;;;;2.10;1.10;;;22.40;57.70;;;;;;4952407;29;20786;-73
2022/07/28 03:23:50;;;;;;;3.20;1.23;;;22.40;57.80;;;;;;4936524;29;20981;-73
2022/07/28 03:26:36;;;;;;;1.50;1.30;;;22.40;57.80;;;;;;4920476;29;20460;-73
2022/07/28 03:29:02;;;;;;;1.37;1.00;;;22.30;57.80;;;;;;4936350;29;20425;-73
2022/07/28 03:31:32;;;;;;;2.57;1.40;;;22.30;57.80;;;;;;4920579;29;20537;-73
2022/07/28 03:34:01;;;;;;;1.90;1.03;;;22.30;57.90;;;;;;4951936;29;20411;-72
2022/07/28 03:36:38;;;;;;;1.77;1.30;;;22.30;57.90;;;;;;4952274;29;20909;-72
2022/07/28 03:39:08;;;;;;;1.60;1.50;;;22.30;57.90;;;;;;4936170;29;20419;-72
2022/07/28 03:41:35;;;;;;;1.67;1.20;;;22.30;57.90;;;;;;4936096;29;20988;-72
2022/07/28 03:44:02;;;;;;;1.57;1.20;;;22.20;57.80;;;;;;4937256;29;20404;-72
2022/07/28 03:46:28;;;;;;;2.20;1.60;;;22.20;57.90;;;;;;4935955;29;20451;-72
2022/07/28 03:48:54;;;;;;;2.57;1.20;;;22.20;57.90;;;;;;4936707;29;20936;-72
2022/07/28 03:51:20;;;;;;;2.57;1.20;;;22.20;57.90;;;;;;4935040;29;20440;-72
2022/07/28 03:53:52;;;;;;;5.47;1.40;;;22.20;58.00;;;;;;4920642;29;20427;-73
2022/07/28 03:56:18;;;;;;;1.97;1.23;;;22.20;58.50;;;;;;4919835;29;20807;-75
2022/07/28 03:58:44;;;;;;;2.27;1.50;;;22.20;58.00;;;;;;4950965;29;20926;-73
2022/07/28 04:01:15;;;;;;;3.83;1.30;;;22.20;58.30;;;;;;4935742;29;20447;-73
2022/07/28 04:03:41;;;;;;;2.97;1.20;;;22.10;58.00;;;;;;4935551;29;20447;-73
2022/07/28 04:06:07;;;;;;;1.90;1.20;;;22.10;58.00;;;;;;4935588;29;20458;-73
2022/07/28 04:08:33;;;;;;;2.80;1.50;;;22.10;58.00;;;;;;4936450;29;20540;-73
2022/07/28 04:10:59;;;;;;;2.40;1.10;;;22.10;58.00;;;;;;4919537;29;20286;-73
2022/07/28 04:13:30;;;;;;;4.70;1.67;;;22.10;58.10;;;;;;4934924;29;20876;-73
2022/07/28 04:16:01;;;;;;;3.00;1.37;;;22.10;58.10;;;;;;4951517;29;20458;-73
2022/07/28 04:18:30;;;;;;;1.63;1.50;;;22.10;58.10;;;;;;4919716;29;20788;-73
2022/07/28 04:21:01;;;;;;;2.77;1.70;;;22.10;58.10;;;;;;4951141;29;20482;-73
2022/07/28 04:23:31;;;;;;;1.20;1.10;;;22.10;58.20;;;;;;4919561;29;20450;-72
2022/07/28 04:26:02;;;;;;;3.57;1.20;;;22.10;58.20;;;;;;4950957;29;20495;-73
2022/07/28 04:28:30;;;;;;;3.23;1.20;;;22.00;58.10;;;;;;4951196;29;20407;-72
2022/07/28 04:30:59;;;;;;;2.10;1.20;;;22.00;58.20;;;;;;4934791;29;20456;-73
2022/07/28 04:33:28;;;;;;;2.67;1.27;;;22.00;58.20;;;;;;4935085;29;20404;-73
2022/07/28 04:35:56;;;;;;;2.67;1.27;;;22.00;58.30;;;;;;4919569;29;20515;-73
2022/07/28 04:38:24;;;;;;;1.70;1.20;;;22.00;58.80;;;;;;4919297;29;20840;-73
2022/07/28 04:40:53;;;;;;;3.53;1.63;;;22.00;58.30;;;;;;4936092;29;20929;-73
2022/07/28 04:43:19;;;;;;;2.07;1.30;;;22.00;58.40;;;;;;4935231;29;20423;-73
2022/07/28 04:45:49;;;;;;;3.53;1.40;;;22.00;58.40;;;;;;4936166;29;20443;-73
2022/07/28 04:48:16;;;;;;;1.27;1.10;;;21.90;58.30;;;;;;4919657;29;20478;-73
2022/07/28 04:50:48;;;;;;;2.60;1.33;;;21.90;58.40;;;;;;4934849;29;20450;-73
2022/07/28 04:53:18;;;;;;;2.90;1.53;;;21.90;58.40;;;;;;4936075;29;20941;-73
2022/07/28 04:55:45;;;;;;;1.90;1.17;;;21.90;58.40;;;;;;4936136;29;20917;-73
2022/07/28 04:58:11;;;;;;;2.20;1.53;;;21.90;58.40;;;;;;4934868;29;20410;-73
2022/07/28 05:00:42;;;;;;;4.40;1.43;;;21.90;58.50;;;;;;4935804;29;20949;-73
2022/07/28 05:03:11;;;;;;;3.43;1.20;;;21.90;58.50;;;;;;4933852;29;20432;-74
2022/07/28 05:05:37;;;;;;;2.80;1.60;;;21.80;58.40;;;;;;4935381;29;20804;-72
2022/07/28 05:08:05;;;;;;;1.70;1.60;;;21.90;58.50;;;;;;4919141;29;20416;-72
2022/07/28 05:10:33;;;;;;;2.00;1.40;;;21.80;58.50;;;;;;4935750;29;20869;-73
2022/07/28 05:13:04;;;;;;;4.07;1.33;;;21.80;58.50;;;;;;4934849;29;20400;-72
2022/07/28 05:15:35;;;;;;;2.07;1.53;;;21.80;58.50;;;;;;4932405;29;20430;-73
2022/07/28 05:18:06;;;;;;;3.63;1.40;;;21.80;58.60;;;;;;4953717;29;20414;-73
2022/07/28 05:20:34;;;;;;;2.53;1.27;;;21.80;58.60;;;;;;4954056;29;20446;-72
2022/07/28 05:23:02;;;;;;;2.10;1.30;;;21.80;58.70;;;;;;4969451;28;20486;-73
2022/07/28 05:25:28;;;;;;;5.23;1.53;;;21.80;58.70;;;;;;4955239;28;20521;-72
2022/07/28 05:27:54;;;;;;;2.13;1.40;;;21.80;58.70;;;;;;4918532;29;20416;-72
2022/07/28 05:30:20;;;;;;;3.40;1.30;;;21.80;58.80;;;;;;4934158;29;20450;-73
2022/07/28 05:32:49;;;;;;;2.00;1.20;;;21.70;58.80;;;;;;4935551;29;20403;-73
2022/07/28 05:35:20;;;;;;;4.53;1.60;;;21.70;58.70;;;;;;4934524;29;20427;-73
2022/07/28 05:37:46;;;;;;;2.07;1.50;;;21.70;58.80;;;;;;4934162;29;20921;-73
2022/07/28 05:40:15;;;;;;;2.27;1.47;;;21.70;58.80;;;;;;4949149;29;20466;-73
2022/07/28 05:42:46;;;;;;;1.73;1.37;;;21.70;58.80;;;;;;4933253;29;20803;-73
2022/07/28 05:45:13;;;;;;;2.57;1.57;;;21.70;58.90;;;;;;4933213;29;20475;-73
2022/07/28 05:47:42;;;;;;;2.60;1.40;;;21.70;58.90;;;;;;4920630;29;20420;-73
2022/07/28 05:50:11;;;;;;;1.90;1.33;;;21.70;58.90;;;;;;4933430;29;20442;-73
2022/07/28 05:52:42;;;;;;;2.40;1.30;;;21.70;59.00;;;;;;4916827;29;20542;-73
2022/07/28 05:55:16;;;;;;;3.57;1.53;;;21.60;59.00;;;;;;4915112;29;20450;-73
2022/07/28 05:57:43;;;;;;;2.07;1.60;;;21.60;59.00;;;;;;4904584;29;20442;-74
2022/07/28 06:00:14;;;;;;;3.20;1.40;;;21.70;59.10;;;;;;4930408;29;20464;-73
2022/07/28 06:02:44;;;;;;;2.17;1.60;;;21.60;59.10;;;;;;4917370;29;20427;-73
2022/07/28 06:05:15;;;;;;;2.40;1.50;;;21.60;59.10;;;;;;4932260;29;20455;-73
2022/07/28 06:07:48;;;;;;;2.53;1.40;;;21.60;59.10;;;;;;4932611;29;20527;-73
2022/07/28 06:10:18;;;;;;;2.47;1.53;;;21.60;59.20;;;;;;4934266;29;20444;-73
2022/07/28 06:12:49;;;;;;;2.40;1.53;;;21.60;59.20;;;;;;4933865;29;20462;-73
2022/07/28 06:15:21;;;;;;;2.13;1.40;;;21.60;59.20;;;;;;4951415;28;20510;-73
2022/07/28 06:17:54;;;;;;;2.10;1.30;;;21.60;59.20;;;;;;4918838;29;20456;-73
2022/07/28 06:20:24;;;;;;;3.97;1.40;;;21.60;59.30;;;;;;4905406;29;20517;-74
2022/07/28 06:22:55;;;;;;;1.87;1.53;;;21.60;59.30;;;;;;4935915;29;21007;-74
2022/07/28 06:25:27;;;;;;;4.70;1.40;;;21.50;59.30;;;;;;4935981;29;20470;-73
2022/07/28 06:27:58;;;;;;;2.17;1.53;;;21.60;59.40;;;;;;4936437;29;20420;-74
2022/07/28 06:30:25;;;;;;;3.73;1.17;;;21.60;59.50;;;;;;4952044;29;20447;-74
2022/07/28 06:32:54;;;;;;;2.73;1.60;;;21.60;59.50;;;;;;4936341;29;20412;-74
2022/07/28 06:35:20;;;;;;;2.30;1.33;;;21.50;59.40;;;;;;4936278;29;20431;-74
2022/07/28 06:37:47;;;;;;;2.03;1.50;;;21.50;59.40;;;;;;4935478;29;20529;-74
2022/07/28 06:40:20;;;;;;;1.87;1.30;;;21.50;59.50;;;;;;4951908;29;20459;-74
2022/07/28 06:42:50;;;;;;;2.50;1.43;;;21.50;59.50;;;;;;4937093;29;20443;-74
2022/07/28 06:45:19;;;;;;;4.20;1.60;;;21.50;59.50;;;;;;4936675;29;20543;-73
2022/07/28 06:47:47;;;;;;;3.97;1.63;;;21.50;59.50;;;;;;4917047;29;20421;-75
2022/07/28 06:50:13;;;;;;;1.77;1.63;;;21.50;59.50;;;;;;4932807;29;20460;-75
2022/07/28 06:52:39;;;;;;;2.90;1.53;;;21.50;59.50;;;;;;4941473;29;20420;-73
2022/07/28 06:55:06;;;;;;;2.03;1.20;;;21.50;60.20;;;;;;4935706;29;20851;-75
2022/07/28 06:57:32;;;;;;;5.07;1.57;;;21.50;59.60;;;;;;4951667;29;20423;-75
2022/07/28 06:59:59;;;;;;;2.33;1.50;;;21.60;59.70;;;;;;4936591;29;20420;-75
2022/07/28 07:02:27;;;;;;;3.53;1.30;;;21.50;59.60;;;;;;4934196;29;20536;-75
2022/07/28 07:04:58;;;;;;;1.80;0.93;;;21.50;59.60;;;;;;4936196;29;20467;-74
2022/07/28 07:07:28;;;;;;;5.30;1.60;;;21.60;59.80;;;;;;4951753;29;20419;-74
2022/07/28 07:09:56;;;;;;;3.00;1.60;;;21.50;59.70;;;;;;4936330;29;20473;-75
2022/07/28 07:12:22;;;;;;;1.77;1.30;;;21.50;59.70;;;;;;4936713;29;20455;-75
2022/07/28 07:14:51;;;;;;;1.93;1.70;;;21.60;59.80;;;;;;4936115;29;20178;-74
2022/07/28 07:17:19;;;;;;;2.60;1.20;;;21.50;59.80;;;;;;4916586;29;20428;-74
2022/07/28 07:19:45;;;;;;;2.90;1.40;;;21.60;59.80;;;;;;4933068;29;20538;-74
2022/07/28 07:22:13;;;;;;;4.37;1.70;;;21.60;59.80;;;;;;4935682;29;20523;-74
2022/07/28 07:24:42;;;;;;;3.23;1.40;;;21.50;59.80;;;;;;4935914;29;20463;-75
2022/07/28 07:27:08;;;;;;;3.93;1.57;;;21.50;59.80;;;;;;4951058;29;20428;-74
2022/07/28 07:29:34;;;;;;;3.50;2.20;;;21.60;60.00;;;;;;4935282;29;20426;-74
2022/07/28 07:32:00;;;;;;;3.27;1.47;;;21.60;60.00;;;;;;4936067;29;20490;-74
2022/07/28 07:34:26;;;;;;;2.20;1.33;;;21.60;60.00;;;;;;4919488;29;20448;-74
2022/07/28 07:36:54;;;;;;;2.57;1.40;;;21.60;60.00;;;;;;4934589;29;20456;-74
2022/07/28 07:39:20;;;;;;;3.10;2.00;;;21.60;60.10;;;;;;4948167;29;20431;-75
2022/07/28 07:41:49;;;;;;;4.30;1.60;;;21.60;60.10;;;;;;4948979;29;20455;-74
2022/07/28 07:44:17;;;;;;;3.33;1.73;;;21.60;60.10;;;;;;4935970;29;20443;-74
2022/07/28 07:46:43;;;;;;;2.80;1.33;;;21.60;60.10;;;;;;4916121;29;20435;-75
2022/07/28 07:49:09;;;;;;;3.10;1.63;;;21.60;60.20;;;;;;4934519;29;20475;-74
2022/07/28 07:51:35;;;;;;;3.03;1.60;;;21.70;60.30;;;;;;4950683;29;20554;-75
2022/07/28 07:54:01;;;;;;;2.50;1.87;;;21.70;60.20;;;;;;4918576;29;20173;-74
2022/07/28 07:56:29;;;;;;;8.00;2.50;;;21.70;60.20;;;;;;4935339;29;20442;-74
2022/07/28 07:58:58;;;;;;;2.93;1.50;;;21.70;60.20;;;;;;4919169;29;20439;-73
2022/07/28 08:01:25;;;;;;;4.83;1.60;;;21.70;60.20;;;;;;4939736;29;20991;-75
2022/07/28 08:03:54;;;;;;;2.33;1.50;;;21.80;60.40;;;;;;4935348;29;20481;-75
2022/07/28 08:06:20;;;;;;;4.73;1.40;;;21.80;60.40;;;;;;4931377;29;20528;-75
2022/07/28 08:08:47;;;;;;;2.67;1.47;;;21.80;60.40;;;;;;4924261;29;20774;-74
2022/07/28 08:11:13;;;;;;;3.90;1.70;;;21.80;60.30;;;;;;4935946;29;20490;-76
2022/07/28 08:13:39;;;;;;;4.80;1.43;;;21.80;60.40;;;;;;4937299;29;21004;-74
2022/07/28 08:16:05;;;;;;;3.30;1.20;;;21.90;60.60;;;;;;4938683;29;20438;-74
2022/07/28 08:18:31;;;;;;;3.90;1.70;;;21.90;60.50;;;;;;4950254;29;20436;-74
2022/07/28 08:20:57;;;;;;;2.97;1.73;;;21.90;60.50;;;;;;4935020;29;20452;-74
2022/07/28 08:23:26;;;;;;;1.80;1.43;;;21.90;60.50;;;;;;4931056;29;20499;-75
2022/07/28 08:25:55;;;;;;;4.13;1.67;;;21.90;60.40;;;;;;4946321;29;20467;-75
2022/07/28 08:28:23;;;;;;;2.77;1.33;;;21.90;60.40;;;;;;4915353;29;21016;-74
2022/07/28 08:30:52;;;;;;;3.73;2.03;;;22.00;60.60;;;;;;4915408;29;20447;-74
2022/07/28 08:33:20;;;;;;;3.70;1.40;;;22.00;60.70;;;;;;4942039;28;20560;-74
2022/07/28 08:35:48;;;;;;;2.03;1.43;;;22.00;60.60;;;;;;4935358;29;20428;-74
2022/07/28 08:38:14;;;;;;;1.50;1.40;;;22.00;60.60;;;;;;4932968;29;20448;-74
2022/07/28 08:40:44;;;;;;;2.80;1.43;;;22.10;60.70;;;;;;4949937;29;20484;-74
2022/07/28 08:43:37;;;;;;;3.23;1.57;;;22.10;60.70;;;;;;4934764;29;20511;-74
2022/07/28 08:46:07;;;;;;;4.40;1.60;;;22.10;60.50;;;;;;4949408;29;20451;-74
2022/07/28 08:48:37;;;;;;;2.70;1.40;;;22.10;60.40;;;;;;4934092;29;20416;-74
2022/07/28 08:51:09;;;;;;;3.20;1.60;;;22.10;60.40;;;;;;4948145;29;20463;-74
2022/07/28 08:53:37;;;;;;;2.50;1.50;;;22.20;60.50;;;;;;4933879;29;20467;-74
2022/07/28 08:56:10;;;;;;;4.70;1.90;;;22.20;60.50;;;;;;4934896;29;20420;-74
2022/07/28 08:58:38;;;;;;;2.33;1.57;;;22.20;60.40;;;;;;4933152;29;20517;-75
2022/07/28 09:01:07;;;;;;;3.90;1.80;;;22.20;60.40;;;;;;4918020;29;20480;-74
2022/07/28 09:03:34;;;;;;;3.63;1.30;;;22.30;60.40;;;;;;4930279;29;20592;-74
2022/07/28 09:06:01;;;;;;;4.47;1.80;;;22.30;60.30;;;;;;4935020;29;20865;-74
2022/07/28 09:08:27;;;;;;;2.33;1.43;;;22.30;60.20;;;;;;4933794;29;20464;-74
2022/07/28 09:10:57;;;;;;;8.30;1.80;;;22.30;60.20;;;;;;4933273;29;20456;-74
2022/07/28 09:13:26;;;;;;;2.53;1.60;;;22.40;61.10;;;;;;4949229;28;20436;-74
2022/07/28 09:15:57;;;;;;;6.07;1.43;;;22.40;60.20;;;;;;4934557;29;20459;-74
2022/07/28 09:18:25;;;;;;;2.30;1.57;;;22.40;60.30;;;;;;4934736;29;20404;-74
2022/07/28 09:20:52;;;;;;;2.70;1.67;;;22.50;60.30;;;;;;4933350;29;20450;-74
2022/07/28 09:23:21;;;;;;;3.33;1.70;;;22.50;60.20;;;;;;4933546;29;20444;-75
2022/07/28 09:25:47;;;;;;;3.33;1.57;;;22.50;60.10;;;;;;4932487;29;20451;-74
2022/07/28 09:28:17;;;;;;;3.03;1.47;;;22.60;60.20;;;;;;4933582;29;20427;-74
2022/07/28 09:30:46;;;;;;;3.33;1.93;;;22.60;60.10;;;;;;4934664;29;20443;-74
2022/07/28 09:33:31;;;;;;;1.90;1.53;;;22.60;60.00;;;;;;4933578;29;21087;-74
2022/07/28 09:35:58;;;;;;;2.10;1.67;;;22.70;60.00;;;;;;4934048;29;20835;-75
2022/07/28 09:38:26;;;;;;;2.23;1.40;;;22.70;60.00;;;;;;4934970;29;20446;-73
2022/07/28 09:41:00;;;;;;;2.30;1.47;;;22.70;59.90;;;;;;4933779;29;20452;-74
2022/07/28 09:43:37;;;;;;;2.17;1.30;;;22.80;59.90;;;;;;4935084;29;20416;-73
2022/07/28 09:46:20;;;;;;;5.60;1.60;;;22.80;59.70;;;;;;4933504;29;20542;-75
2022/07/28 09:49:08;;;;;;;2.50;1.80;;;22.80;59.60;;;;;;4949168;28;20845;-75
2022/07/28 09:51:38;;;;;;;3.90;1.73;;;22.90;59.70;;;;;;4947819;29;21035;-74
2022/07/28 09:54:20;;;;;;;3.07;1.87;;;22.90;59.50;;;;;;4953513;29;20424;-73
2022/07/28 09:57:28;;;;;;;2.03;1.37;;;23.00;59.50;;;;;;4922693;29;20470;-75
2022/07/28 09:59:55;;;;;;;3.37;1.80;;;23.00;59.50;;;;;;4910475;29;20840;-73
2022/07/28 10:02:26;;;;;;;1.87;1.40;;;23.00;59.40;;;;;;4916438;29;21007;-73
2022/07/28 10:04:53;;;;;;;1.83;1.57;;;23.00;59.20;;;;;;4885647;29;20464;-74
2022/07/28 10:07:23;;;;;;;1.90;1.40;;;23.10;59.20;;;;;;4914041;29;20461;-73
2022/07/28 10:10:06;;;;;;;1.53;1.40;;;23.10;59.10;;;;;;4898395;29;20429;-73
2022/07/28 10:12:34;;;;;;;4.93;1.57;;;23.20;59.10;;;;;;4900692;29;20493;-74
2022/07/28 10:18:01;;;;;;;3.10;1.57;;;23.20;58.80;;;;;;4916791;29;20417;-74
2022/07/28 10:20:32;;;;;;;2.30;1.50;;;23.30;58.80;;;;;;4901307;29;20456;-75
2022/07/28 10:23:06;;;;;;;3.13;1.63;;;23.30;59.30;;;;;;4917114;29;20460;-73
2022/07/28 10:25:36;;;;;;;2.20;1.53;;;23.30;58.60;;;;;;4912755;29;20843;-75
2022/07/28 10:28:04;;;;;;;1.87;1.60;;;23.40;58.50;;;;;;4910604;29;20451;-75
2022/07/28 10:30:36;;;;;;;2.90;1.53;;;23.40;58.50;;;;;;4936546;29;20467;-75
2022/07/28 10:33:07;;;;;;;2.30;1.43;;;23.50;58.40;;;;;;4917560;29;20444;-75
2022/07/28 10:35:38;;;;;;;1.93;1.40;;;23.50;58.40;;;;;;4921097;29;20435;-75
2022/07/28 10:38:11;;;;;;;2.47;1.40;;;23.50;58.30;;;;;;4936122;29;20466;-75
2022/07/28 10:40:44;;;;;;;1.93;1.60;;;23.60;58.30;;;;;;4936221;29;20490;-75
2022/07/28 10:43:20;;;;;;;4.73;1.77;;;23.60;58.30;;;;;;4933370;29;20441;-75
2022/07/28 10:45:47;;;;;;;1.63;1.40;;;23.70;58.20;;;;;;4923503;29;20459;-75
2022/07/28 10:48:16;;;;;;;2.20;1.40;;;23.70;58.10;;;;;;4937243;29;20428;-75
2022/07/28 10:50:43;;;;;;;2.23;1.63;;;23.80;58.10;;;;;;4920062;29;20810;-75
2022/07/28 10:53:23;;;;;;;1.73;1.60;;;23.80;58.00;;;;;;4936172;29;20448;-75
2022/07/28 10:55:59;;;;;;;3.40;1.50;;;23.80;57.90;;;;;;4936263;29;20436;-75
2022/07/28 10:58:41;;;;;;;1.50;1.27;;;23.90;57.90;;;;;;4951675;29;21113;-75
2022/07/28 11:01:07;;;;;;;1.67;1.57;;;23.90;57.90;;;;;;4951248;28;20859;-75
2022/07/28 11:03:38;;;;;;;2.83;1.73;;;23.90;57.80;;;;;;4921419;29;20432;-77
2022/07/28 11:06:37;;;;;;;3.57;1.90;;;24.00;57.70;;;;;;4936738;29;20984;-77
2022/07/28 11:09:15;;;;;;;2.60;1.47;;;24.00;57.70;;;;;;4920962;29;20823;-78
2022/07/28 11:11:41;;;;;;;2.60;1.53;;;24.10;57.60;;;;;;4920730;29;20996;-77
2022/07/28 11:14:22;;;;;;;5.17;1.50;;;24.10;57.50;;;;;;4937684;29;20416;-78
2022/07/28 11:17:03;;;;;;;4.10;1.70;;;24.10;57.50;;;;;;4937216;29;20443;-77
2022/07/28 11:19:44;;;;;;;4.03;1.47;;;24.20;57.50;;;;;;4952511;29;20491;-78
2022/07/28 11:25:12;;;;;;;1.87;1.40;;;24.20;57.50;;;;;;4936298;29;20989;-78
2022/07/28 11:27:41;;;;;;;3.07;1.80;;;24.30;57.40;;;;;;4920085;29;20440;-78
2022/07/28 11:30:34;;;;;;;1.80;1.60;;;24.40;57.40;;;;;;4937129;29;20454;-77
2022/07/28 11:33:01;;;;;;;2.23;1.70;;;24.40;57.40;;;;;;4951616;29;20428;-78
2022/07/28 11:35:32;;;;;;;2.33;1.60;;;24.40;57.30;;;;;;4917639;29;20413;-78
2022/07/28 11:38:00;;;;;;;2.30;1.67;;;24.40;57.20;;;;;;4933524;29;20954;-78
2022/07/28 11:40:31;;;;;;;1.40;1.30;;;24.50;57.30;;;;;;4944803;29;20538;-77
2022/07/28 11:43:22;;;;;;;1.70;1.43;;;24.50;57.20;;;;;;4947133;29;20929;-77
2022/07/28 11:46:00;;;;;;;2.50;1.50;;;24.60;57.20;;;;;;4936142;29;20451;-78
2022/07/28 11:48:29;;;;;;;2.80;1.30;;;24.60;57.10;;;;;;4936986;29;20781;-77
2022/07/28 11:51:03;;;;;;;2.83;1.43;;;24.60;57.00;;;;;;4935957;29;20502;-77
2022/07/28 11:53:41;;;;;;;1.80;1.37;;;24.70;57.00;;;;;;4936918;29;20519;-77
2022/07/28 11:56:15;;;;;;;2.13;1.70;;;24.70;57.00;;;;;;4936947;29;20909;-77
2022/07/28 11:58:42;;;;;;;2.27;1.60;;;24.70;57.00;;;;;;4932590;29;20441;-78
2022/07/28 12:01:12;;;;;;;3.30;1.80;;;24.80;57.00;;;;;;4933035;29;20465;-77
2022/07/28 12:03:40;;;;;;;3.90;1.90;;;24.80;57.00;;;;;;4935768;29;20500;-79
2022/07/28 12:06:11;;;;;;;2.00;1.80;;;24.80;57.00;;;;;;4951791;29;20806;-78
2022/07/28 12:08:51;;;;;;;2.43;2.00;;;24.90;57.10;;;;;;4937183;29;21009;-78
2022/07/28 12:11:18;;;;;;;4.20;1.70;;;24.90;57.00;;;;;;4917624;29;20806;-78
2022/07/28 12:13:45;;;;;;;5.20;1.50;;;24.90;56.80;;;;;;4935111;29;20424;-78
2022/07/28 12:16:11;;;;;;;1.53;1.40;;;24.90;56.80;;;;;;4935171;29;20523;-77
2022/07/28 12:18:38;;;;;;;2.23;1.53;;;25.00;56.80;;;;;;4934623;29;20454;-78
2022/07/28 12:21:04;;;;;;;1.37;1.27;;;25.00;56.80;;;;;;4935046;29;20920;-78
2022/07/28 12:23:32;;;;;;;3.70;1.33;;;25.00;56.80;;;;;;4920147;29;20443;-77
2022/07/28 12:26:05;;;;;;;2.00;1.80;;;25.00;56.80;;;;;;4936724;29;20511;-78
2022/07/28 12:28:33;;;;;;;1.80;1.70;;;25.10;56.80;;;;;;4934939;29;20790;-78
2022/07/28 12:31:12;;;;;;;2.50;1.50;;;25.10;56.70;;;;;;4935080;29;20535;-78
2022/07/28 12:33:40;;;;;;;3.40;1.67;;;25.10;56.60;;;;;;4921155;29;20423;-78
2022/07/28 12:36:09;;;;;;;1.80;1.70;;;25.20;56.60;;;;;;4920513;29;20550;-78
2022/07/28 12:38:35;;;;;;;1.60;1.50;;;25.20;56.70;;;;;;4936991;29;20608;-78
2022/07/28 12:41:13;;;;;;;4.10;2.10;;;25.20;56.70;;;;;;4917288;29;20508;-78
2022/07/28 12:43:41;;;;;;;3.80;1.80;;;25.30;56.70;;;;;;4944575;29;20441;-78
2022/07/28 12:46:09;;;;;;;3.20;1.90;;;25.30;56.60;;;;;;4952712;29;20551;-78
2022/07/28 12:48:41;;;;;;;2.17;1.30;;;25.40;56.50;;;;;;4938454;29;20495;-78
2022/07/28 12:51:27;;;;;;;1.87;1.60;;;25.40;56.50;;;;;;4952687;29;20455;-78
2022/07/28 12:53:56;;;;;;;4.33;1.87;;;25.40;56.30;;;;;;4926989;29;20953;-78
2022/07/28 12:57:00;;;;;;;2.70;1.77;;;25.40;56.40;;;;;;4887075;29;20434;-78
2022/07/28 12:59:35;;;;;;;4.20;1.60;;;25.50;56.20;;;;;;4935506;29;20504;-78
2022/07/28 13:02:06;;;;;;;2.60;1.97;;;25.50;56.40;;;;;;4952176;29;20446;-77
2022/07/28 13:04:41;;;;;;;2.23;1.77;;;25.50;56.40;;;;;;4952143;29;20781;-78
2022/07/28 13:07:23;;;;;;;4.53;2.30;;;25.60;56.50;;;;;;4917127;29;20436;-78
2022/07/28 13:10:06;;;;;;;3.20;1.60;;;25.60;56.40;;;;;;4937553;29;20418;-79
2022/07/28 13:12:35;;;;;;;3.10;2.17;;;25.70;56.50;;;;;;4937393;29;20442;-78
2022/07/28 13:15:13;;;;;;;2.07;1.87;;;25.70;56.40;;;;;;4937299;29;20554;-78